KRBL/RBL METAR and TAF weather

Enter ICAO airport designator
Station Type Date Time Source
KRBL METAR 2019/12/12 08:54 UTC NOAA

KRBL 120854Z AUTO 17011KT 7SM OVC007 12/11 A3018 RMK AO2 SLP217 P0001 60003 T01170106 58004


Station Type Date Time Source
KRBL Decoded METAR 2019/12/12 08:54 UTC NOAA

RED BLUFF MUNICIPAL AIRPORT, CA, United States (KRBL) 40-09N 122-15W 104M
Dec 12, 2019 - 03:54 AM EST / 2019.12.12 0854 UTC
Wind: from the S (170 degrees) at 13 MPH (11 KT):0
Visibility: 7 mile(s):0
Sky conditions: overcast
Precipitation last hour: 0.01 inches
Temperature: 53.1 F (11.7 C)
Dew Point: 51.1 F (10.6 C)
Relative Humidity: 92%
Pressure (altimeter): 30.18 in. Hg (1022 hPa)
Pressure tendency: 0.01 inches (0.4 hPa) lower than three hours ago
ob: KRBL 120854Z AUTO 17011KT 7SM OVC007 12/11 A3018 RMK AO2 SLP217 P0001 60003 T01170106 58004
cycle: 9

Station Type Date Time Source
KRBL TAF 2019/12/12 06:45 UTC NOAA

TAF
AMD KRBL 120542Z 1206/1306 18004KT 6SM -SHRA BR OVC007
TEMPO 1206/1210 2SM BR OVC005
FM121000 17007KT 4SM -SHRA BR OVC005
TEMPO 1210/1214 1SM BR OVC003
FM122200 16004KT P6SM OVC015

Example: see airport list